sensor_id;sensor_type;location;lat;lon;timestamp;P1;durP1;ratioP1;P2;durP2;ratioP2
29984;SDS011;17387;42.690;23.328;2022-09-14T00:00:21;10.60;;;9.50;;
29984;SDS011;17387;42.690;23.328;2022-09-14T00:02:47;17.17;;;9.95;;
29984;SDS011;17387;42.690;23.328;2022-09-14T00:05:13;10.18;;;9.18;;
29984;SDS011;17387;42.690;23.328;2022-09-14T00:07:41;9.88;;;8.98;;
29984;SDS011;17387;42.690;23.328;2022-09-14T00:10:07;11.20;;;9.77;;
29984;SDS011;17387;42.690;23.328;2022-09-14T00:12:34;15.18;;;10.13;;
29984;SDS011;17387;42.690;23.328;2022-09-14T00:15:00;10.63;;;9.60;;
29984;SDS011;17387;42.690;23.328;2022-09-14T00:19:59;13.48;;;10.18;;
29984;SDS011;17387;42.690;23.328;2022-09-14T00:22:27;15.65;;;10.70;;
29984;SDS011;17387;42.690;23.328;2022-09-14T00:24:53;11.63;;;10.30;;
29984;SDS011;17387;42.690;23.328;2022-09-14T00:27:21;12.57;;;10.38;;
29984;SDS011;17387;42.690;23.328;2022-09-14T00:29:47;12.07;;;10.23;;
29984;SDS011;17387;42.690;23.328;2022-09-14T00:32:12;14.32;;;10.20;;
29984;SDS011;17387;42.690;23.328;2022-09-14T00:34:41;12.88;;;10.57;;
29984;SDS011;17387;42.690;23.328;2022-09-14T00:37:06;11.90;;;10.65;;
29984;SDS011;17387;42.690;23.328;2022-09-14T00:39:32;12.57;;;10.90;;
29984;SDS011;17387;42.690;23.328;2022-09-14T00:41:57;14.32;;;10.90;;
29984;SDS011;17387;42.690;23.328;2022-09-14T00:46:52;11.93;;;10.73;;
29984;SDS011;17387;42.690;23.328;2022-09-14T00:54:27;11.88;;;10.57;;
29984;SDS011;17387;42.690;23.328;2022-09-14T00:56:53;11.93;;;10.65;;
29984;SDS011;17387;42.690;23.328;2022-09-14T00:59:23;12.30;;;11.07;;
29984;SDS011;17387;42.690;23.328;2022-09-14T01:01:53;13.60;;;11.52;;
29984;SDS011;17387;42.690;23.328;2022-09-14T01:04:18;13.57;;;10.73;;
29984;SDS011;17387;42.690;23.328;2022-09-14T01:18:22;8.50;;;6.78;;
29984;SDS011;17387;42.690;23.328;2022-09-14T01:29:24;11.07;;;9.98;;
29984;SDS011;17387;42.690;23.328;2022-09-14T01:37:11;9.45;;;8.50;;
29984;SDS011;17387;42.690;23.328;2022-09-14T01:39:41;11.40;;;8.43;;
29984;SDS011;17387;42.690;23.328;2022-09-14T01:42:12;9.95;;;8.60;;
29984;SDS011;17387;42.690;23.328;2022-09-14T01:44:40;8.75;;;7.68;;
29984;SDS011;17387;42.690;23.328;2022-09-14T01:47:22;8.15;;;7.30;;
29984;SDS011;17387;42.690;23.328;2022-09-14T01:50:00;8.35;;;7.20;;
29984;SDS011;17387;42.690;23.328;2022-09-14T01:52:34;8.70;;;7.28;;
29984;SDS011;17387;42.690;23.328;2022-09-14T01:55:14;11.23;;;7.32;;
29984;SDS011;17387;42.690;23.328;2022-09-14T01:57:49;10.07;;;7.75;;
29984;SDS011;17387;42.690;23.328;2022-09-14T02:00:20;12.23;;;9.65;;
29984;SDS011;17387;42.690;23.328;2022-09-14T02:02:48;13.80;;;10.00;;
29984;SDS011;17387;42.690;23.328;2022-09-14T02:07:57;14.52;;;10.00;;
29984;SDS011;17387;42.690;23.328;2022-09-14T02:10:23;13.52;;;10.88;;
29984;SDS011;17387;42.690;23.328;2022-09-14T02:12:50;13.27;;;10.07;;
29984;SDS011;17387;42.690;23.328;2022-09-14T02:15:16;15.57;;;10.73;;
29984;SDS011;17387;42.690;23.328;2022-09-14T02:17:42;14.82;;;10.70;;
29984;SDS011;17387;42.690;23.328;2022-09-14T02:20:09;14.77;;;10.00;;
29984;SDS011;17387;42.690;23.328;2022-09-14T02:22:43;13.77;;;10.10;;
29984;SDS011;17387;42.690;23.328;2022-09-14T02:25:08;11.70;;;9.63;;
29984;SDS011;17387;42.690;23.328;2022-09-14T02:27:34;12.38;;;10.15;;
29984;SDS011;17387;42.690;23.328;2022-09-14T02:29:59;12.35;;;9.82;;
29984;SDS011;17387;42.690;23.328;2022-09-14T02:32:38;10.80;;;8.98;;
29984;SDS011;17387;42.690;23.328;2022-09-14T02:43:30;12.85;;;10.80;;
29984;SDS011;17387;42.690;23.328;2022-09-14T02:51:22;15.95;;;11.48;;
29984;SDS011;17387;42.690;23.328;2022-09-14T02:56:43;13.90;;;11.65;;
29984;SDS011;17387;42.690;23.328;2022-09-14T02:59:09;14.35;;;11.35;;
29984;SDS011;17387;42.690;23.328;2022-09-14T03:01:35;15.60;;;11.45;;
29984;SDS011;17387;42.690;23.328;2022-09-14T03:04:01;14.30;;;10.95;;
29984;SDS011;17387;42.690;23.328;2022-09-14T03:06:26;14.75;;;11.13;;
29984;SDS011;17387;42.690;23.328;2022-09-14T03:08:52;15.75;;;10.80;;
29984;SDS011;17387;42.690;23.328;2022-09-14T03:11:17;14.55;;;10.57;;
29984;SDS011;17387;42.690;23.328;2022-09-14T03:13:43;17.20;;;10.70;;
29984;SDS011;17387;42.690;23.328;2022-09-14T03:16:09;13.68;;;9.88;;
29984;SDS011;17387;42.690;23.328;2022-09-14T03:18:37;13.65;;;10.32;;
29984;SDS011;17387;42.690;23.328;2022-09-14T03:21:11;11.85;;;10.05;;
29984;SDS011;17387;42.690;23.328;2022-09-14T03:23:42;14.15;;;10.32;;
29984;SDS011;17387;42.690;23.328;2022-09-14T03:26:16;15.48;;;10.10;;
29984;SDS011;17387;42.690;23.328;2022-09-14T03:28:52;16.25;;;12.73;;
29984;SDS011;17387;42.690;23.328;2022-09-14T03:31:19;11.98;;;10.57;;
29984;SDS011;17387;42.690;23.328;2022-09-14T03:33:45;17.40;;;11.23;;
29984;SDS011;17387;42.690;23.328;2022-09-14T03:36:12;16.77;;;11.02;;
29984;SDS011;17387;42.690;23.328;2022-09-14T03:38:47;15.48;;;11.05;;
29984;SDS011;17387;42.690;23.328;2022-09-14T03:41:14;18.42;;;11.45;;
29984;SDS011;17387;42.690;23.328;2022-09-14T03:43:40;15.38;;;10.80;;
29984;SDS011;17387;42.690;23.328;2022-09-14T03:46:10;17.35;;;10.82;;
29984;SDS011;17387;42.690;23.328;2022-09-14T03:48:38;17.50;;;11.55;;
29984;SDS011;17387;42.690;23.328;2022-09-14T03:51:04;14.30;;;11.25;;
29984;SDS011;17387;42.690;23.328;2022-09-14T03:53:31;18.83;;;11.40;;
29984;SDS011;17387;42.690;23.328;2022-09-14T03:55:57;15.80;;;11.90;;
29984;SDS011;17387;42.690;23.328;2022-09-14T03:58:22;14.02;;;12.13;;
29984;SDS011;17387;42.690;23.328;2022-09-14T04:00:48;16.75;;;12.18;;
29984;SDS011;17387;42.690;23.328;2022-09-14T04:03:14;19.42;;;11.70;;
29984;SDS011;17387;42.690;23.328;2022-09-14T04:05:39;15.90;;;11.20;;
29984;SDS011;17387;42.690;23.328;2022-09-14T04:08:05;14.70;;;12.07;;
29984;SDS011;17387;42.690;23.328;2022-09-14T04:10:30;16.60;;;11.57;;
29984;SDS011;17387;42.690;23.328;2022-09-14T04:12:56;15.15;;;12.05;;
29984;SDS011;17387;42.690;23.328;2022-09-14T04:15:22;17.52;;;11.90;;
29984;SDS011;17387;42.690;23.328;2022-09-14T04:17:51;23.13;;;15.70;;
29984;SDS011;17387;42.690;23.328;2022-09-14T04:20:16;22.10;;;14.55;;
29984;SDS011;17387;42.690;23.328;2022-09-14T04:22:44;23.60;;;17.15;;
29984;SDS011;17387;42.690;23.328;2022-09-14T04:25:10;20.15;;;14.65;;
29984;SDS011;17387;42.690;23.328;2022-09-14T04:27:36;17.75;;;13.90;;
29984;SDS011;17387;42.690;23.328;2022-09-14T04:30:03;19.25;;;13.77;;
29984;SDS011;17387;42.690;23.328;2022-09-14T04:32:29;21.13;;;13.68;;
29984;SDS011;17387;42.690;23.328;2022-09-14T04:34:55;22.85;;;14.30;;
29984;SDS011;17387;42.690;23.328;2022-09-14T04:37:20;23.55;;;15.13;;
29984;SDS011;17387;42.690;23.328;2022-09-14T04:39:46;15.38;;;13.60;;
29984;SDS011;17387;42.690;23.328;2022-09-14T04:42:11;19.67;;;13.57;;
29984;SDS011;17387;42.690;23.328;2022-09-14T04:44:37;17.90;;;14.32;;
29984;SDS011;17387;42.690;23.328;2022-09-14T04:47:02;22.70;;;14.23;;
29984;SDS011;17387;42.690;23.328;2022-09-14T04:49:28;20.75;;;13.80;;
29984;SDS011;17387;42.690;23.328;2022-09-14T04:51:53;20.17;;;13.68;;
29984;SDS011;17387;42.690;23.328;2022-09-14T04:54:19;20.92;;;14.65;;
29984;SDS011;17387;42.690;23.328;2022-09-14T04:56:44;19.48;;;13.85;;
29984;SDS011;17387;42.690;23.328;2022-09-14T04:59:10;16.27;;;13.40;;
29984;SDS011;17387;42.690;23.328;2022-09-14T05:01:40;19.23;;;13.57;;
29984;SDS011;17387;42.690;23.328;2022-09-14T05:04:07;18.67;;;13.57;;
29984;SDS011;17387;42.690;23.328;2022-09-14T05:06:34;22.83;;;14.55;;
29984;SDS011;17387;42.690;23.328;2022-09-14T05:09:02;21.15;;;14.93;;
29984;SDS011;17387;42.690;23.328;2022-09-14T05:11:30;20.90;;;15.18;;
29984;SDS011;17387;42.690;23.328;2022-09-14T05:13:58;22.67;;;14.25;;
29984;SDS011;17387;42.690;23.328;2022-09-14T05:16:25;19.85;;;14.15;;
29984;SDS011;17387;42.690;23.328;2022-09-14T05:18:52;19.35;;;13.98;;
29984;SDS011;17387;42.690;23.328;2022-09-14T05:21:20;24.38;;;15.55;;
29984;SDS011;17387;42.690;23.328;2022-09-14T05:23:46;22.13;;;14.80;;
29984;SDS011;17387;42.690;23.328;2022-09-14T05:26:16;21.70;;;15.27;;
29984;SDS011;17387;42.690;23.328;2022-09-14T05:28:42;23.02;;;14.50;;
29984;SDS011;17387;42.690;23.328;2022-09-14T05:31:08;23.45;;;14.70;;
29984;SDS011;17387;42.690;23.328;2022-09-14T05:33:35;23.45;;;15.13;;
29984;SDS011;17387;42.690;23.328;2022-09-14T05:36:01;25.17;;;15.18;;
29984;SDS011;17387;42.690;23.328;2022-09-14T05:38:32;30.47;;;15.37;;
29984;SDS011;17387;42.690;23.328;2022-09-14T05:40:59;24.17;;;15.57;;
29984;SDS011;17387;42.690;23.328;2022-09-14T05:43:26;18.38;;;14.57;;
29984;SDS011;17387;42.690;23.328;2022-09-14T05:45:52;17.60;;;14.25;;
29984;SDS011;17387;42.690;23.328;2022-09-14T05:48:18;21.50;;;13.80;;
29984;SDS011;17387;42.690;23.328;2022-09-14T05:50:43;22.52;;;13.98;;
29984;SDS011;17387;42.690;23.328;2022-09-14T05:53:09;24.90;;;15.35;;
29984;SDS011;17387;42.690;23.328;2022-09-14T05:55:34;23.67;;;14.13;;
29984;SDS011;17387;42.690;23.328;2022-09-14T05:57:59;18.88;;;14.15;;
29984;SDS011;17387;42.690;23.328;2022-09-14T06:00:25;23.55;;;14.00;;
29984;SDS011;17387;42.690;23.328;2022-09-14T06:02:52;23.38;;;15.15;;
29984;SDS011;17387;42.690;23.328;2022-09-14T06:05:18;27.75;;;14.63;;
29984;SDS011;17387;42.690;23.328;2022-09-14T06:07:48;22.17;;;14.82;;
29984;SDS011;17387;42.690;23.328;2022-09-14T06:10:15;29.95;;;16.30;;
29984;SDS011;17387;42.690;23.328;2022-09-14T06:12:40;25.60;;;14.95;;
29984;SDS011;17387;42.690;23.328;2022-09-14T06:15:06;24.30;;;15.50;;
29984;SDS011;17387;42.690;23.328;2022-09-14T06:17:32;23.20;;;14.40;;
29984;SDS011;17387;42.690;23.328;2022-09-14T06:19:58;22.75;;;13.90;;
29984;SDS011;17387;42.690;23.328;2022-09-14T06:22:23;17.33;;;12.20;;
29984;SDS011;17387;42.690;23.328;2022-09-14T06:24:48;21.00;;;12.68;;
29984;SDS011;17387;42.690;23.328;2022-09-14T06:27:14;21.27;;;12.52;;
29984;SDS011;17387;42.690;23.328;2022-09-14T06:29:39;19.70;;;12.43;;
29984;SDS011;17387;42.690;23.328;2022-09-14T06:32:05;20.58;;;12.30;;
29984;SDS011;17387;42.690;23.328;2022-09-14T06:34:30;20.00;;;12.95;;
29984;SDS011;17387;42.690;23.328;2022-09-14T06:36:56;16.10;;;11.77;;
29984;SDS011;17387;42.690;23.328;2022-09-14T06:39:22;20.10;;;12.40;;
29984;SDS011;17387;42.690;23.328;2022-09-14T06:41:48;17.35;;;12.00;;
29984;SDS011;17387;42.690;23.328;2022-09-14T06:44:15;14.05;;;10.32;;
29984;SDS011;17387;42.690;23.328;2022-09-14T06:46:41;14.90;;;11.32;;
29984;SDS011;17387;42.690;23.328;2022-09-14T06:49:08;19.83;;;11.30;;
29984;SDS011;17387;42.690;23.328;2022-09-14T06:51:40;14.90;;;10.60;;
29984;SDS011;17387;42.690;23.328;2022-09-14T06:54:08;14.15;;;11.02;;
29984;SDS011;17387;42.690;23.328;2022-09-14T06:56:36;13.32;;;10.73;;
29984;SDS011;17387;42.690;23.328;2022-09-14T06:59:04;15.50;;;11.05;;
29984;SDS011;17387;42.690;23.328;2022-09-14T07:01:31;15.23;;;10.55;;
29984;SDS011;17387;42.690;23.328;2022-09-14T07:03:57;16.48;;;10.85;;
29984;SDS011;17387;42.690;23.328;2022-09-14T07:06:25;14.85;;;11.25;;
29984;SDS011;17387;42.690;23.328;2022-09-14T07:08:53;15.48;;;10.90;;
29984;SDS011;17387;42.690;23.328;2022-09-14T07:11:20;15.23;;;8.77;;
29984;SDS011;17387;42.690;23.328;2022-09-14T07:13:48;11.70;;;9.40;;
29984;SDS011;17387;42.690;23.328;2022-09-14T07:16:13;20.15;;;11.82;;
29984;SDS011;17387;42.690;23.328;2022-09-14T07:18:39;14.32;;;9.10;;
29984;SDS011;17387;42.690;23.328;2022-09-14T07:21:07;11.77;;;8.75;;
29984;SDS011;17387;42.690;23.328;2022-09-14T07:23:37;10.90;;;8.15;;
29984;SDS011;17387;42.690;23.328;2022-09-14T07:26:06;11.32;;;8.60;;
29984;SDS011;17387;42.690;23.328;2022-09-14T07:28:33;21.85;;;10.45;;
29984;SDS011;17387;42.690;23.328;2022-09-14T07:31:00;16.30;;;10.32;;
29984;SDS011;17387;42.690;23.328;2022-09-14T07:33:26;10.00;;;8.25;;
29984;SDS011;17387;42.690;23.328;2022-09-14T07:35:51;13.23;;;7.93;;
29984;SDS011;17387;42.690;23.328;2022-09-14T07:38:17;14.55;;;8.10;;
29984;SDS011;17387;42.690;23.328;2022-09-14T07:40:44;14.30;;;8.68;;
29984;SDS011;17387;42.690;23.328;2022-09-14T07:43:10;14.73;;;8.50;;
29984;SDS011;17387;42.690;23.328;2022-09-14T07:45:35;17.20;;;11.55;;
29984;SDS011;17387;42.690;23.328;2022-09-14T07:48:02;13.65;;;9.10;;
29984;SDS011;17387;42.690;23.328;2022-09-14T07:50:28;13.95;;;9.75;;
29984;SDS011;17387;42.690;23.328;2022-09-14T07:52:53;28.02;;;16.88;;
29984;SDS011;17387;42.690;23.328;2022-09-14T07:55:19;15.20;;;8.95;;
29984;SDS011;17387;42.690;23.328;2022-09-14T07:57:45;18.83;;;10.20;;
29984;SDS011;17387;42.690;23.328;2022-09-14T08:00:11;30.17;;;13.52;;
29984;SDS011;17387;42.690;23.328;2022-09-14T08:02:37;16.00;;;8.63;;
29984;SDS011;17387;42.690;23.328;2022-09-14T08:05:02;11.27;;;8.20;;
29984;SDS011;17387;42.690;23.328;2022-09-14T08:07:28;15.85;;;11.38;;
29984;SDS011;17387;42.690;23.328;2022-09-14T08:09:53;13.75;;;8.98;;
29984;SDS011;17387;42.690;23.328;2022-09-14T08:12:19;21.40;;;8.20;;
29984;SDS011;17387;42.690;23.328;2022-09-14T08:14:44;17.17;;;8.45;;
29984;SDS011;17387;42.690;23.328;2022-09-14T08:17:09;14.43;;;8.43;;
29984;SDS011;17387;42.690;23.328;2022-09-14T08:19:35;16.23;;;10.40;;
29984;SDS011;17387;42.690;23.328;2022-09-14T08:22:02;17.30;;;9.73;;
29984;SDS011;17387;42.690;23.328;2022-09-14T08:24:28;14.57;;;9.45;;
29984;SDS011;17387;42.690;23.328;2022-09-14T08:26:54;14.57;;;9.75;;
29984;SDS011;17387;42.690;23.328;2022-09-14T08:29:20;16.20;;;9.27;;
29984;SDS011;17387;42.690;23.328;2022-09-14T08:31:46;16.45;;;9.95;;
29984;SDS011;17387;42.690;23.328;2022-09-14T08:34:13;13.05;;;7.82;;
29984;SDS011;17387;42.690;23.328;2022-09-14T08:36:40;15.68;;;7.82;;
29984;SDS011;17387;42.690;23.328;2022-09-14T08:39:07;16.27;;;9.38;;
29984;SDS011;17387;42.690;23.328;2022-09-14T08:47:27;17.60;;;9.18;;
29984;SDS011;17387;42.690;23.328;2022-09-14T08:52:54;16.30;;;9.82;;
29984;SDS011;17387;42.690;23.328;2022-09-14T08:58:00;14.48;;;9.88;;
29984;SDS011;17387;42.690;23.328;2022-09-14T09:05:50;21.02;;;13.00;;
29984;SDS011;17387;42.690;23.328;2022-09-14T09:08:32;17.33;;;9.98;;
29984;SDS011;17387;42.690;23.328;2022-09-14T09:11:02;21.42;;;11.63;;
29984;SDS011;17387;42.690;23.328;2022-09-14T09:13:31;14.82;;;8.63;;
29984;SDS011;17387;42.690;23.328;2022-09-14T09:16:01;17.73;;;10.05;;
29984;SDS011;17387;42.690;23.328;2022-09-14T09:21:25;13.48;;;9.45;;
29984;SDS011;17387;42.690;23.328;2022-09-14T09:26:35;17.50;;;10.60;;
29984;SDS011;17387;42.690;23.328;2022-09-14T09:29:00;12.90;;;8.75;;
29984;SDS011;17387;42.690;23.328;2022-09-14T09:31:34;11.88;;;8.77;;
29984;SDS011;17387;42.690;23.328;2022-09-14T09:34:02;17.02;;;10.45;;
29984;SDS011;17387;42.690;23.328;2022-09-14T09:36:38;25.38;;;14.50;;
29984;SDS011;17387;42.690;23.328;2022-09-14T09:39:05;24.98;;;10.10;;
29984;SDS011;17387;42.690;23.328;2022-09-14T09:44:22;16.38;;;9.38;;
29984;SDS011;17387;42.690;23.328;2022-09-14T09:49:22;15.70;;;10.23;;
29984;SDS011;17387;42.690;23.328;2022-09-14T09:51:54;16.33;;;8.48;;
29984;SDS011;17387;42.690;23.328;2022-09-14T09:54:29;20.85;;;10.50;;
29984;SDS011;17387;42.690;23.328;2022-09-14T09:57:01;20.58;;;12.07;;
29984;SDS011;17387;42.690;23.328;2022-09-14T09:59:36;15.00;;;8.02;;
29984;SDS011;17387;42.690;23.328;2022-09-14T10:04:59;15.60;;;9.25;;
29984;SDS011;17387;42.690;23.328;2022-09-14T10:07:24;15.02;;;9.07;;
29984;SDS011;17387;42.690;23.328;2022-09-14T10:09:58;19.02;;;9.60;;
29984;SDS011;17387;42.690;23.328;2022-09-14T10:12:31;16.35;;;8.95;;
29984;SDS011;17387;42.690;23.328;2022-09-14T10:15:02;24.27;;;11.95;;
29984;SDS011;17387;42.690;23.328;2022-09-14T10:17:32;15.32;;;7.65;;
29984;SDS011;17387;42.690;23.328;2022-09-14T10:19:57;19.60;;;10.68;;
29984;SDS011;17387;42.690;23.328;2022-09-14T10:22:27;16.25;;;6.53;;
29984;SDS011;17387;42.690;23.328;2022-09-14T10:27:48;16.00;;;7.38;;
29984;SDS011;17387;42.690;23.328;2022-09-14T10:44:31;7.68;;;5.35;;
29984;SDS011;17387;42.690;23.328;2022-09-14T10:55:31;8.57;;;3.90;;
29984;SDS011;17387;42.690;23.328;2022-09-14T11:07:18;3.95;;;2.53;;
29984;SDS011;17387;42.690;23.328;2022-09-14T11:10:15;6.70;;;3.08;;
29984;SDS011;17387;42.690;23.328;2022-09-14T11:17:51;2.90;;;1.63;;
29984;SDS011;17387;42.690;23.328;2022-09-14T11:28:19;2.35;;;2.00;;
29984;SDS011;17387;42.690;23.328;2022-09-14T11:33:27;3.45;;;1.90;;
29984;SDS011;17387;42.690;23.328;2022-09-14T11:36:00;4.30;;;2.00;;
29984;SDS011;17387;42.690;23.328;2022-09-14T11:38:34;2.92;;;1.70;;
29984;SDS011;17387;42.690;23.328;2022-09-14T11:43:46;4.63;;;2.28;;
29984;SDS011;17387;42.690;23.328;2022-09-14T11:46:24;2.70;;;1.80;;
29984;SDS011;17387;42.690;23.328;2022-09-14T11:48:58;4.15;;;1.60;;
29984;SDS011;17387;42.690;23.328;2022-09-14T11:51:36;2.90;;;1.95;;
29984;SDS011;17387;42.690;23.328;2022-09-14T11:54:17;3.60;;;1.52;;
29984;SDS011;17387;42.690;23.328;2022-09-14T11:56:48;3.10;;;1.80;;
29984;SDS011;17387;42.690;23.328;2022-09-14T11:59:32;3.13;;;1.50;;
29984;SDS011;17387;42.690;23.328;2022-09-14T12:10:16;3.72;;;1.90;;
29984;SDS011;17387;42.690;23.328;2022-09-14T12:12:52;4.35;;;2.17;;
29984;SDS011;17387;42.690;23.328;2022-09-14T12:23:24;3.33;;;2.17;;
29984;SDS011;17387;42.690;23.328;2022-09-14T12:25:55;3.90;;;1.73;;
29984;SDS011;17387;42.690;23.328;2022-09-14T12:31:06;3.17;;;1.92;;
29984;SDS011;17387;42.690;23.328;2022-09-14T12:36:03;3.03;;;2.17;;
29984;SDS011;17387;42.690;23.328;2022-09-14T12:38:42;5.40;;;1.73;;
29984;SDS011;17387;42.690;23.328;2022-09-14T12:44:33;2.33;;;1.88;;
29984;SDS011;17387;42.690;23.328;2022-09-14T12:49:56;4.63;;;1.90;;
29984;SDS011;17387;42.690;23.328;2022-09-14T12:58:01;3.40;;;1.60;;
29984;SDS011;17387;42.690;23.328;2022-09-14T13:00:47;4.68;;;1.55;;
29984;SDS011;17387;42.690;23.328;2022-09-14T13:03:45;5.03;;;1.73;;
29984;SDS011;17387;42.690;23.328;2022-09-14T13:06:13;1.70;;;1.55;;
29984;SDS011;17387;42.690;23.328;2022-09-14T13:08:50;3.83;;;1.98;;
29984;SDS011;17387;42.690;23.328;2022-09-14T13:11:22;5.43;;;1.88;;
29984;SDS011;17387;42.690;23.328;2022-09-14T13:13:52;7.65;;;2.17;;
29984;SDS011;17387;42.690;23.328;2022-09-14T13:16:26;4.20;;;1.92;;
29984;SDS011;17387;42.690;23.328;2022-09-14T13:19:03;6.28;;;1.55;;
29984;SDS011;17387;42.690;23.328;2022-09-14T13:21:30;5.65;;;2.25;;
29984;SDS011;17387;42.690;23.328;2022-09-14T13:23:55;3.17;;;1.60;;
29984;SDS011;17387;42.690;23.328;2022-09-14T13:26:22;4.47;;;2.10;;
29984;SDS011;17387;42.690;23.328;2022-09-14T13:28:51;4.35;;;1.98;;
29984;SDS011;17387;42.690;23.328;2022-09-14T13:31:20;3.35;;;1.90;;
29984;SDS011;17387;42.690;23.328;2022-09-14T13:33:51;2.38;;;1.70;;
29984;SDS011;17387;42.690;23.328;2022-09-14T13:36:21;5.07;;;1.90;;
29984;SDS011;17387;42.690;23.328;2022-09-14T13:38:49;3.10;;;1.77;;
29984;SDS011;17387;42.690;23.328;2022-09-14T13:41:17;4.15;;;1.85;;
29984;SDS011;17387;42.690;23.328;2022-09-14T13:43:47;4.18;;;1.80;;
29984;SDS011;17387;42.690;23.328;2022-09-14T13:46:13;4.47;;;1.90;;
29984;SDS011;17387;42.690;23.328;2022-09-14T13:48:40;6.15;;;1.70;;
29984;SDS011;17387;42.690;23.328;2022-09-14T13:51:07;3.40;;;1.55;;
29984;SDS011;17387;42.690;23.328;2022-09-14T13:53:50;3.25;;;1.60;;
29984;SDS011;17387;42.690;23.328;2022-09-14T13:58:46;6.25;;;2.10;;
29984;SDS011;17387;42.690;23.328;2022-09-14T14:07:06;4.53;;;1.55;;
29984;SDS011;17387;42.690;23.328;2022-09-14T14:09:41;4.07;;;2.00;;
29984;SDS011;17387;42.690;23.328;2022-09-14T14:19:54;6.70;;;2.30;;
29984;SDS011;17387;42.690;23.328;2022-09-14T14:24:57;6.40;;;2.10;;
29984;SDS011;17387;42.690;23.328;2022-09-14T14:29:55;5.80;;;2.20;;
29984;SDS011;17387;42.690;23.328;2022-09-14T14:32:22;4.88;;;2.05;;
29984;SDS011;17387;42.690;23.328;2022-09-14T14:34:48;3.28;;;2.33;;
29984;SDS011;17387;42.690;23.328;2022-09-14T14:37:13;5.57;;;2.50;;
29984;SDS011;17387;42.690;23.328;2022-09-14T14:39:39;10.55;;;2.50;;
29984;SDS011;17387;42.690;23.328;2022-09-14T14:42:04;4.57;;;2.28;;
29984;SDS011;17387;42.690;23.328;2022-09-14T14:44:31;3.20;;;1.88;;
29984;SDS011;17387;42.690;23.328;2022-09-14T14:46:57;4.65;;;2.40;;
29984;SDS011;17387;42.690;23.328;2022-09-14T14:49:23;4.22;;;2.10;;
29984;SDS011;17387;42.690;23.328;2022-09-14T14:51:49;5.03;;;2.35;;
29984;SDS011;17387;42.690;23.328;2022-09-14T14:54:15;4.35;;;2.80;;
29984;SDS011;17387;42.690;23.328;2022-09-14T14:56:46;5.15;;;3.42;;
29984;SDS011;17387;42.690;23.328;2022-09-14T15:01:44;6.35;;;3.00;;
29984;SDS011;17387;42.690;23.328;2022-09-14T15:04:10;6.85;;;3.15;;
29984;SDS011;17387;42.690;23.328;2022-09-14T15:06:35;7.45;;;3.25;;
29984;SDS011;17387;42.690;23.328;2022-09-14T15:09:01;5.78;;;2.47;;
29984;SDS011;17387;42.690;23.328;2022-09-14T15:14:00;6.22;;;2.63;;
29984;SDS011;17387;42.690;23.328;2022-09-14T15:16:25;5.75;;;2.47;;
29984;SDS011;17387;42.690;23.328;2022-09-14T15:18:51;4.82;;;2.35;;
29984;SDS011;17387;42.690;23.328;2022-09-14T15:21:16;5.45;;;3.10;;
29984;SDS011;17387;42.690;23.328;2022-09-14T15:23:42;3.35;;;2.30;;
29984;SDS011;17387;42.690;23.328;2022-09-14T15:26:07;5.20;;;2.53;;
29984;SDS011;17387;42.690;23.328;2022-09-14T15:28:33;7.10;;;3.30;;
29984;SDS011;17387;42.690;23.328;2022-09-14T15:31:02;10.13;;;3.22;;
29984;SDS011;17387;42.690;23.328;2022-09-14T15:33:28;4.35;;;2.70;;
29984;SDS011;17387;42.690;23.328;2022-09-14T15:35:54;4.55;;;3.10;;
29984;SDS011;17387;42.690;23.328;2022-09-14T15:38:21;8.13;;;4.40;;
29984;SDS011;17387;42.690;23.328;2022-09-14T15:40:46;8.68;;;3.22;;
29984;SDS011;17387;42.690;23.328;2022-09-14T15:43:12;5.75;;;3.00;;
29984;SDS011;17387;42.690;23.328;2022-09-14T15:45:37;8.65;;;3.38;;
29984;SDS011;17387;42.690;23.328;2022-09-14T15:48:03;8.05;;;2.92;;
29984;SDS011;17387;42.690;23.328;2022-09-14T15:50:28;5.03;;;2.80;;
29984;SDS011;17387;42.690;23.328;2022-09-14T15:52:54;7.95;;;3.60;;
29984;SDS011;17387;42.690;23.328;2022-09-14T15:55:19;11.82;;;4.53;;
29984;SDS011;17387;42.690;23.328;2022-09-14T15:57:45;12.48;;;5.55;;
29984;SDS011;17387;42.690;23.328;2022-09-14T16:00:11;11.13;;;5.78;;
29984;SDS011;17387;42.690;23.328;2022-09-14T16:02:37;12.27;;;8.15;;
29984;SDS011;17387;42.690;23.328;2022-09-14T16:05:03;11.05;;;5.53;;
29984;SDS011;17387;42.690;23.328;2022-09-14T16:07:29;10.60;;;6.00;;
29984;SDS011;17387;42.690;23.328;2022-09-14T16:09:54;8.77;;;4.95;;
29984;SDS011;17387;42.690;23.328;2022-09-14T16:12:20;9.02;;;4.22;;
29984;SDS011;17387;42.690;23.328;2022-09-14T16:14:45;9.52;;;4.43;;
29984;SDS011;17387;42.690;23.328;2022-09-14T16:17:11;11.43;;;4.80;;
29984;SDS011;17387;42.690;23.328;2022-09-14T16:19:37;8.75;;;4.30;;
29984;SDS011;17387;42.690;23.328;2022-09-14T16:22:02;9.60;;;5.20;;
29984;SDS011;17387;42.690;23.328;2022-09-14T16:24:29;22.15;;;9.57;;
29984;SDS011;17387;42.690;23.328;2022-09-14T16:26:55;9.52;;;4.88;;
29984;SDS011;17387;42.690;23.328;2022-09-14T16:29:22;13.18;;;5.45;;
29984;SDS011;17387;42.690;23.328;2022-09-14T16:31:48;10.82;;;5.93;;
29984;SDS011;17387;42.690;23.328;2022-09-14T16:34:19;16.13;;;11.13;;
29984;SDS011;17387;42.690;23.328;2022-09-14T16:36:47;10.63;;;8.05;;
29984;SDS011;17387;42.690;23.328;2022-09-14T16:39:14;11.60;;;5.97;;
29984;SDS011;17387;42.690;23.328;2022-09-14T16:41:44;20.55;;;10.25;;
29984;SDS011;17387;42.690;23.328;2022-09-14T16:44:17;13.20;;;6.80;;
29984;SDS011;17387;42.690;23.328;2022-09-14T16:46:44;11.55;;;5.80;;
29984;SDS011;17387;42.690;23.328;2022-09-14T16:49:09;15.13;;;5.65;;
29984;SDS011;17387;42.690;23.328;2022-09-14T16:51:35;10.70;;;5.90;;
29984;SDS011;17387;42.690;23.328;2022-09-14T16:54:01;15.02;;;6.60;;
29984;SDS011;17387;42.690;23.328;2022-09-14T16:56:29;14.43;;;7.95;;
29984;SDS011;17387;42.690;23.328;2022-09-14T16:58:56;20.50;;;8.77;;
29984;SDS011;17387;42.690;23.328;2022-09-14T17:01:24;14.38;;;8.63;;
29984;SDS011;17387;42.690;23.328;2022-09-14T17:03:53;11.25;;;5.80;;
29984;SDS011;17387;42.690;23.328;2022-09-14T17:06:24;13.13;;;7.05;;
29984;SDS011;17387;42.690;23.328;2022-09-14T17:08:53;18.30;;;10.48;;
29984;SDS011;17387;42.690;23.328;2022-09-14T17:11:21;7.82;;;4.97;;
29984;SDS011;17387;42.690;23.328;2022-09-14T17:13:47;15.65;;;6.35;;
29984;SDS011;17387;42.690;23.328;2022-09-14T17:16:14;12.68;;;5.80;;
29984;SDS011;17387;42.690;23.328;2022-09-14T17:18:41;17.52;;;7.93;;
29984;SDS011;17387;42.690;23.328;2022-09-14T17:21:12;24.48;;;11.30;;
29984;SDS011;17387;42.690;23.328;2022-09-14T17:23:40;9.10;;;4.88;;
29984;SDS011;17387;42.690;23.328;2022-09-14T17:26:07;15.63;;;6.15;;
29984;SDS011;17387;42.690;23.328;2022-09-14T17:28:34;8.75;;;5.50;;
29984;SDS011;17387;42.690;23.328;2022-09-14T17:31:01;18.17;;;8.38;;
29984;SDS011;17387;42.690;23.328;2022-09-14T17:33:27;20.20;;;8.80;;
29984;SDS011;17387;42.690;23.328;2022-09-14T17:35:54;19.27;;;9.70;;
29984;SDS011;17387;42.690;23.328;2022-09-14T17:38:23;40.67;;;22.70;;
29984;SDS011;17387;42.690;23.328;2022-09-14T17:40:51;44.10;;;23.10;;